sensor_id;sensor_type;location;lat;lon;timestamp;temperature;humidity
78731;SHT31;68055;51.978;5.658;2024-02-16T00:00:31;14.9;65.1
78731;SHT31;68055;51.978;5.658;2024-02-16T00:03:00;14.9;65.4
78731;SHT31;68055;51.978;5.658;2024-02-16T00:05:28;14.9;65.3
78731;SHT31;68055;51.978;5.658;2024-02-16T00:07:57;14.9;65.4
78731;SHT31;68055;51.978;5.658;2024-02-16T00:10:27;14.9;65.3
78731;SHT31;68055;51.978;5.658;2024-02-16T00:12:56;14.9;65.2
78731;SHT31;68055;51.978;5.658;2024-02-16T00:15:25;14.9;65.1
78731;SHT31;68055;51.978;5.658;2024-02-16T00:17:54;14.9;65.2
78731;SHT31;68055;51.978;5.658;2024-02-16T00:20:22;14.9;65.3
78731;SHT31;68055;51.978;5.658;2024-02-16T00:22:51;14.9;65.2
78731;SHT31;68055;51.978;5.658;2024-02-16T00:25:19;14.8;65.3
78731;SHT31;68055;51.978;5.658;2024-02-16T00:27:48;14.8;65.1
78731;SHT31;68055;51.978;5.658;2024-02-16T00:30:19;14.8;64.9
78731;SHT31;68055;51.978;5.658;2024-02-16T00:32:48;14.8;65.0
78731;SHT31;68055;51.978;5.658;2024-02-16T00:35:17;14.7;65.1
78731;SHT31;68055;51.978;5.658;2024-02-16T00:37:48;14.7;65.0
78731;SHT31;68055;51.978;5.658;2024-02-16T00:40:16;14.7;65.3
78731;SHT31;68055;51.978;5.658;2024-02-16T00:42:47;14.7;65.3
78731;SHT31;68055;51.978;5.658;2024-02-16T00:45:15;14.7;65.2
78731;SHT31;68055;51.978;5.658;2024-02-16T00:47:44;14.7;65.5
78731;SHT31;68055;51.978;5.658;2024-02-16T00:50:15;14.6;65.7
78731;SHT31;68055;51.978;5.658;2024-02-16T00:52:45;14.6;65.3
78731;SHT31;68055;51.978;5.658;2024-02-16T00:55:14;14.6;65.5
78731;SHT31;68055;51.978;5.658;2024-02-16T00:57:44;14.6;65.7
78731;SHT31;68055;51.978;5.658;2024-02-16T01:00:14;14.6;65.6
78731;SHT31;68055;51.978;5.658;2024-02-16T01:02:43;14.6;65.6
78731;SHT31;68055;51.978;5.658;2024-02-16T01:05:11;14.6;66.2
78731;SHT31;68055;51.978;5.658;2024-02-16T01:07:44;14.6;65.6
78731;SHT31;68055;51.978;5.658;2024-02-16T01:10:12;14.6;65.6
78731;SHT31;68055;51.978;5.658;2024-02-16T01:12:41;14.6;65.6
78731;SHT31;68055;51.978;5.658;2024-02-16T01:15:10;14.6;65.5
78731;SHT31;68055;51.978;5.658;2024-02-16T01:17:39;14.6;65.4
78731;SHT31;68055;51.978;5.658;2024-02-16T01:20:08;14.6;65.2
78731;SHT31;68055;51.978;5.658;2024-02-16T01:22:39;14.5;65.3
78731;SHT31;68055;51.978;5.658;2024-02-16T01:25:09;14.5;65.2
78731;SHT31;68055;51.978;5.658;2024-02-16T01:27:38;14.5;65.2
78731;SHT31;68055;51.978;5.658;2024-02-16T01:30:08;14.5;65.6
78731;SHT31;68055;51.978;5.658;2024-02-16T01:32:37;14.5;65.5
78731;SHT31;68055;51.978;5.658;2024-02-16T01:35:07;14.5;65.5
78731;SHT31;68055;51.978;5.658;2024-02-16T01:37:36;14.4;65.5
78731;SHT31;68055;51.978;5.658;2024-02-16T01:40:05;14.4;65.6
78731;SHT31;68055;51.978;5.658;2024-02-16T01:42:35;14.4;65.4
78731;SHT31;68055;51.978;5.658;2024-02-16T01:45:04;14.4;65.6
78731;SHT31;68055;51.978;5.658;2024-02-16T01:47:32;14.4;65.9
78731;SHT31;68055;51.978;5.658;2024-02-16T01:50:01;14.4;65.8
78731;SHT31;68055;51.978;5.658;2024-02-16T01:52:31;14.3;65.5
78731;SHT31;68055;51.978;5.658;2024-02-16T01:55:02;14.3;65.5
78731;SHT31;68055;51.978;5.658;2024-02-16T01:57:32;14.3;65.5
78731;SHT31;68055;51.978;5.658;2024-02-16T02:00:01;14.3;65.9
78731;SHT31;68055;51.978;5.658;2024-02-16T02:02:31;14.3;65.7
78731;SHT31;68055;51.978;5.658;2024-02-16T02:05:00;14.3;65.5
78731;SHT31;68055;51.978;5.658;2024-02-16T02:07:28;14.3;66.0
78731;SHT31;68055;51.978;5.658;2024-02-16T02:09:57;14.3;65.8
78731;SHT31;68055;51.978;5.658;2024-02-16T02:12:26;14.3;65.7
78731;SHT31;68055;51.978;5.658;2024-02-16T02:14:55;14.3;65.7
78731;SHT31;68055;51.978;5.658;2024-02-16T02:17:24;14.2;66.0
78731;SHT31;68055;51.978;5.658;2024-02-16T02:19:53;14.2;66.0
78731;SHT31;68055;51.978;5.658;2024-02-16T02:22:22;14.2;65.7
78731;SHT31;68055;51.978;5.658;2024-02-16T02:24:53;14.2;65.8
78731;SHT31;68055;51.978;5.658;2024-02-16T02:27:22;14.2;65.5
78731;SHT31;68055;51.978;5.658;2024-02-16T02:29:51;14.2;65.6
78731;SHT31;68055;51.978;5.658;2024-02-16T02:32:19;14.2;65.9
78731;SHT31;68055;51.978;5.658;2024-02-16T02:34:48;14.2;65.7
78731;SHT31;68055;51.978;5.658;2024-02-16T02:37:16;14.2;65.8
78731;SHT31;68055;51.978;5.658;2024-02-16T02:39:45;14.3;65.8
78731;SHT31;68055;51.978;5.658;2024-02-16T02:42:15;14.3;66.0
78731;SHT31;68055;51.978;5.658;2024-02-16T02:44:44;14.3;65.6
78731;SHT31;68055;51.978;5.658;2024-02-16T02:47:16;14.3;65.6
78731;SHT31;68055;51.978;5.658;2024-02-16T02:49:47;14.3;65.6
78731;SHT31;68055;51.978;5.658;2024-02-16T02:52:15;14.3;65.7
78731;SHT31;68055;51.978;5.658;2024-02-16T02:54:45;14.3;65.3
78731;SHT31;68055;51.978;5.658;2024-02-16T02:57:13;14.3;65.6
78731;SHT31;68055;51.978;5.658;2024-02-16T02:59:42;14.3;65.5
78731;SHT31;68055;51.978;5.658;2024-02-16T03:02:11;14.3;65.4
78731;SHT31;68055;51.978;5.658;2024-02-16T03:04:40;14.3;65.3
78731;SHT31;68055;51.978;5.658;2024-02-16T03:07:09;14.3;65.4
78731;SHT31;68055;51.978;5.658;2024-02-16T03:09:37;14.3;65.4
78731;SHT31;68055;51.978;5.658;2024-02-16T03:12:08;14.3;65.4
78731;SHT31;68055;51.978;5.658;2024-02-16T03:14:37;14.3;65.2
78731;SHT31;68055;51.978;5.658;2024-02-16T03:17:05;14.3;65.3
78731;SHT31;68055;51.978;5.658;2024-02-16T03:19:34;14.3;65.0
78731;SHT31;68055;51.978;5.658;2024-02-16T03:22:02;14.4;65.2
78731;SHT31;68055;51.978;5.658;2024-02-16T03:24:31;14.4;64.9
78731;SHT31;68055;51.978;5.658;2024-02-16T03:27:00;14.4;65.1
78731;SHT31;68055;51.978;5.658;2024-02-16T03:29:29;14.4;64.8
78731;SHT31;68055;51.978;5.658;2024-02-16T03:31:57;14.4;64.6
78731;SHT31;68055;51.978;5.658;2024-02-16T03:34:26;14.4;64.7
78731;SHT31;68055;51.978;5.658;2024-02-16T03:36:54;14.4;64.5
78731;SHT31;68055;51.978;5.658;2024-02-16T03:39:25;14.3;64.5
78731;SHT31;68055;51.978;5.658;2024-02-16T03:41:53;14.3;64.8
78731;SHT31;68055;51.978;5.658;2024-02-16T03:44:22;14.3;65.0
78731;SHT31;68055;51.978;5.658;2024-02-16T03:46:51;14.3;64.7
78731;SHT31;68055;51.978;5.658;2024-02-16T03:49:19;14.3;64.6
78731;SHT31;68055;51.978;5.658;2024-02-16T03:51:48;14.3;64.8
78731;SHT31;68055;51.978;5.658;2024-02-16T03:54:16;14.3;65.0
78731;SHT31;68055;51.978;5.658;2024-02-16T03:56:45;14.2;65.2
78731;SHT31;68055;51.978;5.658;2024-02-16T03:59:15;14.2;64.9
78731;SHT31;68055;51.978;5.658;2024-02-16T04:01:43;14.2;65.1
78731;SHT31;68055;51.978;5.658;2024-02-16T04:04:12;14.2;65.2
78731;SHT31;68055;51.978;5.658;2024-02-16T04:06:41;14.2;65.3
78731;SHT31;68055;51.978;5.658;2024-02-16T04:09:10;14.2;65.1
78731;SHT31;68055;51.978;5.658;2024-02-16T04:11:38;14.2;65.4
78731;SHT31;68055;51.978;5.658;2024-02-16T04:14:09;14.1;65.2
78731;SHT31;68055;51.978;5.658;2024-02-16T04:16:38;14.1;65.3
78731;SHT31;68055;51.978;5.658;2024-02-16T04:19:06;14.1;65.2
78731;SHT31;68055;51.978;5.658;2024-02-16T04:21:35;14.1;65.3
78731;SHT31;68055;51.978;5.658;2024-02-16T04:24:04;14.1;65.2
78731;SHT31;68055;51.978;5.658;2024-02-16T04:26:32;14.1;65.5
78731;SHT31;68055;51.978;5.658;2024-02-16T04:29:02;14.1;65.6
78731;SHT31;68055;51.978;5.658;2024-02-16T04:31:31;14.1;65.5
78731;SHT31;68055;51.978;5.658;2024-02-16T04:34:00;14.1;65.6
78731;SHT31;68055;51.978;5.658;2024-02-16T04:36:29;14.1;65.5
78731;SHT31;68055;51.978;5.658;2024-02-16T04:38:57;14.1;65.4
78731;SHT31;68055;51.978;5.658;2024-02-16T04:41:26;14.1;65.4
78731;SHT31;68055;51.978;5.658;2024-02-16T04:43:55;14.1;65.5
78731;SHT31;68055;51.978;5.658;2024-02-16T04:46:24;14.1;65.4
78731;SHT31;68055;51.978;5.658;2024-02-16T04:48:53;14.1;65.7
78731;SHT31;68055;51.978;5.658;2024-02-16T04:51:22;14.1;65.6
78731;SHT31;68055;51.978;5.658;2024-02-16T04:53:50;14.1;65.6
78731;SHT31;68055;51.978;5.658;2024-02-16T04:56:21;14.1;65.6
78731;SHT31;68055;51.978;5.658;2024-02-16T04:58:49;14.1;65.8
78731;SHT31;68055;51.978;5.658;2024-02-16T05:01:18;14.1;65.5
78731;SHT31;68055;51.978;5.658;2024-02-16T05:03:46;14.1;65.6
78731;SHT31;68055;51.978;5.658;2024-02-16T05:06:15;14.1;65.8
78731;SHT31;68055;51.978;5.658;2024-02-16T05:08:43;14.1;65.8
78731;SHT31;68055;51.978;5.658;2024-02-16T05:11:12;14.1;65.8
78731;SHT31;68055;51.978;5.658;2024-02-16T05:13:40;14.1;65.9
78731;SHT31;68055;51.978;5.658;2024-02-16T05:16:11;14.1;65.7
78731;SHT31;68055;51.978;5.658;2024-02-16T05:18:41;14.1;65.6
78731;SHT31;68055;51.978;5.658;2024-02-16T05:21:10;14.2;65.6
78731;SHT31;68055;51.978;5.658;2024-02-16T05:23:38;14.2;65.6
78731;SHT31;68055;51.978;5.658;2024-02-16T05:26:07;14.2;65.7
78731;SHT31;68055;51.978;5.658;2024-02-16T05:28:36;14.2;65.7
78731;SHT31;68055;51.978;5.658;2024-02-16T05:31:14;14.2;65.5
78731;SHT31;68055;51.978;5.658;2024-02-16T05:33:48;14.2;65.2
78731;SHT31;68055;51.978;5.658;2024-02-16T05:36:18;14.3;65.4
78731;SHT31;68055;51.978;5.658;2024-02-16T05:38:47;14.3;65.4
78731;SHT31;68055;51.978;5.658;2024-02-16T05:41:17;14.3;65.4
78731;SHT31;68055;51.978;5.658;2024-02-16T05:43:46;14.3;65.5
78731;SHT31;68055;51.978;5.658;2024-02-16T05:46:15;14.3;65.3
78731;SHT31;68055;51.978;5.658;2024-02-16T05:48:44;14.3;65.3
78731;SHT31;68055;51.978;5.658;2024-02-16T05:51:13;14.3;65.4
78731;SHT31;68055;51.978;5.658;2024-02-16T05:53:43;14.4;65.5
78731;SHT31;68055;51.978;5.658;2024-02-16T05:56:15;14.4;65.7
78731;SHT31;68055;51.978;5.658;2024-02-16T05:58:45;14.4;65.6
78731;SHT31;68055;51.978;5.658;2024-02-16T06:01:16;14.4;65.4
78731;SHT31;68055;51.978;5.658;2024-02-16T06:03:45;14.4;65.4
78731;SHT31;68055;51.978;5.658;2024-02-16T06:06:13;14.4;65.4
78731;SHT31;68055;51.978;5.658;2024-02-16T06:08:42;14.4;65.7
78731;SHT31;68055;51.978;5.658;2024-02-16T06:11:10;14.4;65.5
78731;SHT31;68055;51.978;5.658;2024-02-16T06:13:39;14.4;65.6
78731;SHT31;68055;51.978;5.658;2024-02-16T06:16:08;14.4;65.3
78731;SHT31;68055;51.978;5.658;2024-02-16T06:18:37;14.4;65.4
78731;SHT31;68055;51.978;5.658;2024-02-16T06:21:06;14.4;65.5
78731;SHT31;68055;51.978;5.658;2024-02-16T06:23:34;14.4;65.5
78731;SHT31;68055;51.978;5.658;2024-02-16T06:26:06;14.4;65.5
78731;SHT31;68055;51.978;5.658;2024-02-16T06:28:35;14.4;65.6
78731;SHT31;68055;51.978;5.658;2024-02-16T06:31:03;14.5;65.7
78731;SHT31;68055;51.978;5.658;2024-02-16T06:33:32;14.5;65.7
78731;SHT31;68055;51.978;5.658;2024-02-16T06:36:01;14.5;65.7
78731;SHT31;68055;51.978;5.658;2024-02-16T06:38:30;14.5;65.4
78731;SHT31;68055;51.978;5.658;2024-02-16T06:40:58;14.5;65.5
78731;SHT31;68055;51.978;5.658;2024-02-16T06:43:29;14.5;65.6
78731;SHT31;68055;51.978;5.658;2024-02-16T06:45:58;14.6;65.5
78731;SHT31;68055;51.978;5.658;2024-02-16T06:48:26;14.6;65.7
78731;SHT31;68055;51.978;5.658;2024-02-16T06:50:55;14.6;65.6
78731;SHT31;68055;51.978;5.658;2024-02-16T06:53:23;14.6;65.5
78731;SHT31;68055;51.978;5.658;2024-02-16T06:55:52;14.6;65.5
78731;SHT31;68055;51.978;5.658;2024-02-16T06:58:21;14.6;65.6
78731;SHT31;68055;51.978;5.658;2024-02-16T07:00:49;14.6;65.6
78731;SHT31;68055;51.978;5.658;2024-02-16T07:03:18;14.6;65.4
78731;SHT31;68055;51.978;5.658;2024-02-16T07:05:46;14.6;65.4
78731;SHT31;68055;51.978;5.658;2024-02-16T07:08:15;14.6;65.7
78731;SHT31;68055;51.978;5.658;2024-02-16T07:10:44;14.6;65.8
78731;SHT31;68055;51.978;5.658;2024-02-16T07:13:14;14.6;65.9
78731;SHT31;68055;51.978;5.658;2024-02-16T07:15:42;14.6;66.0
78731;SHT31;68055;51.978;5.658;2024-02-16T07:18:11;14.6;66.1
78731;SHT31;68055;51.978;5.658;2024-02-16T07:20:42;14.6;66.1
78731;SHT31;68055;51.978;5.658;2024-02-16T07:23:11;14.6;66.2
78731;SHT31;68055;51.978;5.658;2024-02-16T07:25:41;14.6;66.3
78731;SHT31;68055;51.978;5.658;2024-02-16T07:28:12;14.6;66.3
78731;SHT31;68055;51.978;5.658;2024-02-16T07:30:40;14.6;66.3
78731;SHT31;68055;51.978;5.658;2024-02-16T07:33:09;14.6;66.4
78731;SHT31;68055;51.978;5.658;2024-02-16T07:35:38;14.6;66.4
78731;SHT31;68055;51.978;5.658;2024-02-16T07:38:06;14.7;66.5
78731;SHT31;68055;51.978;5.658;2024-02-16T07:40:35;14.7;66.3
78731;SHT31;68055;51.978;5.658;2024-02-16T07:43:04;14.7;66.4
78731;SHT31;68055;51.978;5.658;2024-02-16T07:45:34;14.7;66.4
78731;SHT31;68055;51.978;5.658;2024-02-16T07:48:04;14.8;66.4
78731;SHT31;68055;51.978;5.658;2024-02-16T07:50:34;14.8;66.3
78731;SHT31;68055;51.978;5.658;2024-02-16T07:53:02;14.8;66.3
78731;SHT31;68055;51.978;5.658;2024-02-16T07:55:31;14.8;66.3
78731;SHT31;68055;51.978;5.658;2024-02-16T07:58:00;14.9;66.4
78731;SHT31;68055;51.978;5.658;2024-02-16T08:00:29;14.9;66.4
78731;SHT31;68055;51.978;5.658;2024-02-16T08:02:58;14.9;66.5
78731;SHT31;68055;51.978;5.658;2024-02-16T08:05:27;14.9;66.4
78731;SHT31;68055;51.978;5.658;2024-02-16T08:07:55;15.0;66.5
78731;SHT31;68055;51.978;5.658;2024-02-16T08:10:24;15.0;66.4
78731;SHT31;68055;51.978;5.658;2024-02-16T08:12:53;15.0;66.5
78731;SHT31;68055;51.978;5.658;2024-02-16T08:15:22;15.1;66.4
78731;SHT31;68055;51.978;5.658;2024-02-16T08:17:52;15.1;66.5
78731;SHT31;68055;51.978;5.658;2024-02-16T08:20:21;15.1;66.3
78731;SHT31;68055;51.978;5.658;2024-02-16T08:22:50;15.2;66.4
78731;SHT31;68055;51.978;5.658;2024-02-16T08:25:18;15.2;66.4
78731;SHT31;68055;51.978;5.658;2024-02-16T08:27:47;15.2;66.5
78731;SHT31;68055;51.978;5.658;2024-02-16T08:30:16;15.2;66.4
78731;SHT31;68055;51.978;5.658;2024-02-16T08:32:45;15.3;66.4
78731;SHT31;68055;51.978;5.658;2024-02-16T08:35:13;15.3;66.3
78731;SHT31;68055;51.978;5.658;2024-02-16T08:37:43;15.3;66.4
78731;SHT31;68055;51.978;5.658;2024-02-16T08:40:13;15.3;66.5
78731;SHT31;68055;51.978;5.658;2024-02-16T08:42:42;15.4;66.3
78731;SHT31;68055;51.978;5.658;2024-02-16T08:45:11;15.4;66.4
78731;SHT31;68055;51.978;5.658;2024-02-16T08:47:43;15.4;66.3
78731;SHT31;68055;51.978;5.658;2024-02-16T08:50:11;15.4;66.3
78731;SHT31;68055;51.978;5.658;2024-02-16T08:52:40;15.5;66.4
78731;SHT31;68055;51.978;5.658;2024-02-16T08:55:11;15.5;66.6
78731;SHT31;68055;51.978;5.658;2024-02-16T08:57:39;15.5;66.4
78731;SHT31;68055;51.978;5.658;2024-02-16T09:00:08;15.6;66.2
78731;SHT31;68055;51.978;5.658;2024-02-16T09:02:38;15.6;66.3
78731;SHT31;68055;51.978;5.658;2024-02-16T09:05:07;15.6;66.3
78731;SHT31;68055;51.978;5.658;2024-02-16T09:07:37;15.7;66.4
78731;SHT31;68055;51.978;5.658;2024-02-16T09:10:07;15.7;66.5
78731;SHT31;68055;51.978;5.658;2024-02-16T09:12:36;15.8;66.2
78731;SHT31;68055;51.978;5.658;2024-02-16T09:15:05;15.8;66.5
78731;SHT31;68055;51.978;5.658;2024-02-16T09:17:35;15.9;66.0
78731;SHT31;68055;51.978;5.658;2024-02-16T09:20:03;15.9;65.9
78731;SHT31;68055;51.978;5.658;2024-02-16T09:22:34;16.0;66.0
78731;SHT31;68055;51.978;5.658;2024-02-16T09:25:04;16.0;66.0
78731;SHT31;68055;51.978;5.658;2024-02-16T09:27:33;16.1;66.2
78731;SHT31;68055;51.978;5.658;2024-02-16T09:30:07;16.1;65.9
78731;SHT31;68055;51.978;5.658;2024-02-16T09:32:39;16.1;65.8
78731;SHT31;68055;51.978;5.658;2024-02-16T09:35:08;16.2;66.1
78731;SHT31;68055;51.978;5.658;2024-02-16T09:37:38;16.2;66.8
78731;SHT31;68055;51.978;5.658;2024-02-16T09:40:08;16.2;67.1
78731;SHT31;68055;51.978;5.658;2024-02-16T09:42:38;16.2;66.9
78731;SHT31;68055;51.978;5.658;2024-02-16T09:45:07;16.2;67.4
78731;SHT31;68055;51.978;5.658;2024-02-16T09:47:39;16.2;67.9
78731;SHT31;68055;51.978;5.658;2024-02-16T09:50:09;16.2;67.8
78731;SHT31;68055;51.978;5.658;2024-02-16T09:52:40;16.2;67.7
78731;SHT31;68055;51.978;5.658;2024-02-16T09:55:12;16.2;67.9
78731;SHT31;68055;51.978;5.658;2024-02-16T09:57:41;16.2;68.1
78731;SHT31;68055;51.978;5.658;2024-02-16T10:00:12;16.2;67.8
78731;SHT31;68055;51.978;5.658;2024-02-16T10:02:45;16.2;67.5
78731;SHT31;68055;51.978;5.658;2024-02-16T10:05:16;16.2;67.8
78731;SHT31;68055;51.978;5.658;2024-02-16T10:07:46;16.3;67.3
78731;SHT31;68055;51.978;5.658;2024-02-16T10:10:22;16.3;67.8
78731;SHT31;68055;51.978;5.658;2024-02-16T10:13:02;16.3;67.8
78731;SHT31;68055;51.978;5.658;2024-02-16T10:15:32;16.3;67.9
78731;SHT31;68055;51.978;5.658;2024-02-16T10:18:02;16.3;67.7
78731;SHT31;68055;51.978;5.658;2024-02-16T10:20:34;16.3;67.6
78731;SHT31;68055;51.978;5.658;2024-02-16T10:23:08;16.3;67.6
78731;SHT31;68055;51.978;5.658;2024-02-16T10:25:38;16.3;67.6
78731;SHT31;68055;51.978;5.658;2024-02-16T10:28:10;16.3;67.7
78731;SHT31;68055;51.978;5.658;2024-02-16T10:30:41;16.3;67.6
78731;SHT31;68055;51.978;5.658;2024-02-16T10:33:11;16.3;67.4
78731;SHT31;68055;51.978;5.658;2024-02-16T10:35:41;16.3;67.7
78731;SHT31;68055;51.978;5.658;2024-02-16T10:38:10;16.3;67.7
78731;SHT31;68055;51.978;5.658;2024-02-16T10:40:41;16.3;67.7
78731;SHT31;68055;51.978;5.658;2024-02-16T10:43:13;16.3;67.7
78731;SHT31;68055;51.978;5.658;2024-02-16T10:45:42;16.3;67.4
78731;SHT31;68055;51.978;5.658;2024-02-16T10:48:11;16.3;67.9
78731;SHT31;68055;51.978;5.658;2024-02-16T10:50:42;16.3;67.7
78731;SHT31;68055;51.978;5.658;2024-02-16T10:53:16;16.3;67.8
78731;SHT31;68055;51.978;5.658;2024-02-16T10:55:47;16.3;67.7
78731;SHT31;68055;51.978;5.658;2024-02-16T10:58:17;16.3;68.2
78731;SHT31;68055;51.978;5.658;2024-02-16T11:00:55;16.2;68.7
78731;SHT31;68055;51.978;5.658;2024-02-16T11:03:25;16.2;68.9
78731;SHT31;68055;51.978;5.658;2024-02-16T11:05:56;16.1;69.4
78731;SHT31;68055;51.978;5.658;2024-02-16T11:08:26;16.1;69.6
78731;SHT31;68055;51.978;5.658;2024-02-16T11:10:56;16.1;69.8
78731;SHT31;68055;51.978;5.658;2024-02-16T11:13:27;16.1;69.8
78731;SHT31;68055;51.978;5.658;2024-02-16T11:16:00;16.0;70.0
78731;SHT31;68055;51.978;5.658;2024-02-16T11:18:30;16.0;70.2
78731;SHT31;68055;51.978;5.658;2024-02-16T11:21:02;16.0;70.1
78731;SHT31;68055;51.978;5.658;2024-02-16T11:23:35;16.0;70.5
78731;SHT31;68055;51.978;5.658;2024-02-16T11:26:10;15.9;70.5
78731;SHT31;68055;51.978;5.658;2024-02-16T11:28:41;15.9;70.6
78731;SHT31;68055;51.978;5.658;2024-02-16T11:31:11;15.9;70.8
78731;SHT31;68055;51.978;5.658;2024-02-16T11:33:44;15.8;70.9
78731;SHT31;68055;51.978;5.658;2024-02-16T11:36:13;15.8;71.3
78731;SHT31;68055;51.978;5.658;2024-02-16T11:38:42;15.7;71.7
78731;SHT31;68055;51.978;5.658;2024-02-16T11:41:14;15.6;72.4
78731;SHT31;68055;51.978;5.658;2024-02-16T11:43:43;15.5;72.8
78731;SHT31;68055;51.978;5.658;2024-02-16T11:46:13;15.4;73.1
78731;SHT31;68055;51.978;5.658;2024-02-16T11:48:43;15.4;73.5
78731;SHT31;68055;51.978;5.658;2024-02-16T11:51:15;15.3;73.8
78731;SHT31;68055;51.978;5.658;2024-02-16T11:53:45;15.3;73.9
78731;SHT31;68055;51.978;5.658;2024-02-16T11:56:24;15.2;74.2
78731;SHT31;68055;51.978;5.658;2024-02-16T11:58:53;15.2;74.2
78731;SHT31;68055;51.978;5.658;2024-02-16T12:01:22;15.2;74.6
78731;SHT31;68055;51.978;5.658;2024-02-16T12:03:51;15.2;74.9
78731;SHT31;68055;51.978;5.658;2024-02-16T12:06:24;15.1;75.0
78731;SHT31;68055;51.978;5.658;2024-02-16T12:08:54;15.1;74.9
78731;SHT31;68055;51.978;5.658;2024-02-16T12:11:23;15.1;75.0
78731;SHT31;68055;51.978;5.658;2024-02-16T12:13:54;15.1;75.2
78731;SHT31;68055;51.978;5.658;2024-02-16T12:16:24;15.1;75.6
78731;SHT31;68055;51.978;5.658;2024-02-16T12:19:05;15.1;75.5
78731;SHT31;68055;51.978;5.658;2024-02-16T12:21:34;15.1;75.7
78731;SHT31;68055;51.978;5.658;2024-02-16T12:24:03;15.1;75.6
78731;SHT31;68055;51.978;5.658;2024-02-16T12:26:31;15.1;75.4
78731;SHT31;68055;51.978;5.658;2024-02-16T12:29:00;15.2;75.2
78731;SHT31;68055;51.978;5.658;2024-02-16T12:31:29;15.2;75.2
78731;SHT31;68055;51.978;5.658;2024-02-16T12:33:58;15.2;74.9
78731;SHT31;68055;51.978;5.658;2024-02-16T12:36:29;15.2;74.9
78731;SHT31;68055;51.978;5.658;2024-02-16T12:38:58;15.2;74.7
78731;SHT31;68055;51.978;5.658;2024-02-16T12:41:26;15.2;74.7
78731;SHT31;68055;51.978;5.658;2024-02-16T12:43:55;15.2;74.7
78731;SHT31;68055;51.978;5.658;2024-02-16T12:46:24;15.3;74.8
78731;SHT31;68055;51.978;5.658;2024-02-16T12:48:54;15.3;74.9
78731;SHT31;68055;51.978;5.658;2024-02-16T12:51:23;15.3;74.6
78731;SHT31;68055;51.978;5.658;2024-02-16T12:53:52;15.3;74.5
78731;SHT31;68055;51.978;5.658;2024-02-16T12:56:20;15.3;74.5
78731;SHT31;68055;51.978;5.658;2024-02-16T12:58:49;15.3;74.5
78731;SHT31;68055;51.978;5.658;2024-02-16T13:01:18;15.3;74.5
78731;SHT31;68055;51.978;5.658;2024-02-16T13:03:47;15.2;74.2
78731;SHT31;68055;51.978;5.658;2024-02-16T13:06:18;15.2;74.2
78731;SHT31;68055;51.978;5.658;2024-02-16T13:08:46;15.2;74.1
78731;SHT31;68055;51.978;5.658;2024-02-16T13:11:15;15.2;74.4
78731;SHT31;68055;51.978;5.658;2024-02-16T13:13:44;15.2;74.5
78731;SHT31;68055;51.978;5.658;2024-02-16T13:16:13;15.2;74.8
78731;SHT31;68055;51.978;5.658;2024-02-16T13:18:42;15.2;74.9
78731;SHT31;68055;51.978;5.658;2024-02-16T13:21:10;15.2;75.3
78731;SHT31;68055;51.978;5.658;2024-02-16T13:23:39;15.3;75.0
78731;SHT31;68055;51.978;5.658;2024-02-16T13:26:08;15.3;75.1
78731;SHT31;68055;51.978;5.658;2024-02-16T13:28:36;15.3;74.8
78731;SHT31;68055;51.978;5.658;2024-02-16T13:31:05;15.3;74.9
78731;SHT31;68055;51.978;5.658;2024-02-16T13:33:34;15.4;74.0
78731;SHT31;68055;51.978;5.658;2024-02-16T13:36:02;15.4;74.6
78731;SHT31;68055;51.978;5.658;2024-02-16T13:38:32;15.4;74.3
78731;SHT31;68055;51.978;5.658;2024-02-16T13:41:00;15.5;73.6
78731;SHT31;68055;51.978;5.658;2024-02-16T13:43:31;15.5;73.7
78731;SHT31;68055;51.978;5.658;2024-02-16T13:46:00;15.5;73.8
78731;SHT31;68055;51.978;5.658;2024-02-16T13:48:28;15.5;73.9
78731;SHT31;68055;51.978;5.658;2024-02-16T13:50:58;15.6;73.7
78731;SHT31;68055;51.978;5.658;2024-02-16T13:53:27;15.6;73.4
78731;SHT31;68055;51.978;5.658;2024-02-16T13:55:56;15.6;73.6
78731;SHT31;68055;51.978;5.658;2024-02-16T13:58:27;15.7;73.2
78731;SHT31;68055;51.978;5.658;2024-02-16T14:00:57;15.7;72.9
78731;SHT31;68055;51.978;5.658;2024-02-16T14:03:26;15.7;72.8
78731;SHT31;68055;51.978;5.658;2024-02-16T14:05:56;15.8;71.8
78731;SHT31;68055;51.978;5.658;2024-02-16T14:08:27;15.8;72.5
78731;SHT31;68055;51.978;5.658;2024-02-16T14:10:57;15.8;72.5
78731;SHT31;68055;51.978;5.658;2024-02-16T14:13:25;15.8;72.3
78731;SHT31;68055;51.978;5.658;2024-02-16T14:15:55;15.9;71.7
78731;SHT31;68055;51.978;5.658;2024-02-16T14:18:23;15.9;71.9
78731;SHT31;68055;51.978;5.658;2024-02-16T14:20:53;15.9;71.2
78731;SHT31;68055;51.978;5.658;2024-02-16T14:23:21;15.9;71.5
78731;SHT31;68055;51.978;5.658;2024-02-16T14:25:50;16.0;71.6
78731;SHT31;68055;51.978;5.658;2024-02-16T14:28:20;16.0;70.8
78731;SHT31;68055;51.978;5.658;2024-02-16T14:30:49;16.0;70.8
78731;SHT31;68055;51.978;5.658;2024-02-16T14:33:17;16.0;71.0
78731;SHT31;68055;51.978;5.658;2024-02-16T14:35:46;16.0;70.9
78731;SHT31;68055;51.978;5.658;2024-02-16T14:38:16;16.1;70.5
78731;SHT31;68055;51.978;5.658;2024-02-16T14:40:45;16.1;70.5
78731;SHT31;68055;51.978;5.658;2024-02-16T14:43:16;16.1;70.6
78731;SHT31;68055;51.978;5.658;2024-02-16T14:45:45;16.1;70.5
78731;SHT31;68055;51.978;5.658;2024-02-16T14:48:13;16.1;70.4
78731;SHT31;68055;51.978;5.658;2024-02-16T14:50:42;16.1;70.0
78731;SHT31;68055;51.978;5.658;2024-02-16T14:53:11;16.1;70.1
78731;SHT31;68055;51.978;5.658;2024-02-16T14:55:39;16.1;70.1
78731;SHT31;68055;51.978;5.658;2024-02-16T14:58:08;16.2;69.9
78731;SHT31;68055;51.978;5.658;2024-02-16T15:00:36;16.2;69.8
78731;SHT31;68055;51.978;5.658;2024-02-16T15:03:05;16.2;69.6
78731;SHT31;68055;51.978;5.658;2024-02-16T15:05:35;16.1;69.4
78731;SHT31;68055;51.978;5.658;2024-02-16T15:08:05;16.1;69.6
78731;SHT31;68055;51.978;5.658;2024-02-16T15:10:33;16.1;69.9
78731;SHT31;68055;51.978;5.658;2024-02-16T15:13:02;16.1;69.6
78731;SHT31;68055;51.978;5.658;2024-02-16T15:15:30;16.1;69.4
78731;SHT31;68055;51.978;5.658;2024-02-16T15:17:59;16.1;69.2
78731;SHT31;68055;51.978;5.658;2024-02-16T15:20:30;16.1;68.8
78731;SHT31;68055;51.978;5.658;2024-02-16T15:22:59;16.1;68.8
78731;SHT31;68055;51.978;5.658;2024-02-16T15:25:27;16.1;68.8
78731;SHT31;68055;51.978;5.658;2024-02-16T15:27:56;16.1;68.5
78731;SHT31;68055;51.978;5.658;2024-02-16T15:30:25;16.1;68.2
78731;SHT31;68055;51.978;5.658;2024-02-16T15:32:54;16.0;68.8
78731;SHT31;68055;51.978;5.658;2024-02-16T15:35:22;16.0;68.6
78731;SHT31;68055;51.978;5.658;2024-02-16T15:37:51;16.0;68.9
78731;SHT31;68055;51.978;5.658;2024-02-16T15:40:20;16.0;69.2
78731;SHT31;68055;51.978;5.658;2024-02-16T15:43:01;16.0;69.2
78731;SHT31;68055;51.978;5.658;2024-02-16T15:45:32;16.0;69.3
78731;SHT31;68055;51.978;5.658;2024-02-16T15:48:06;16.0;68.8
78731;SHT31;68055;51.978;5.658;2024-02-16T15:50:36;16.0;68.8
78731;SHT31;68055;51.978;5.658;2024-02-16T15:53:05;16.0;68.3
78731;SHT31;68055;51.978;5.658;2024-02-16T15:55:34;16.0;68.7
78731;SHT31;68055;51.978;5.658;2024-02-16T15:58:03;16.0;69.2
78731;SHT31;68055;51.978;5.658;2024-02-16T16:00:31;16.0;68.7
78731;SHT31;68055;51.978;5.658;2024-02-16T16:03:00;16.0;68.9
78731;SHT31;68055;51.978;5.658;2024-02-16T16:05:28;16.0;69.3
78731;SHT31;68055;51.978;5.658;2024-02-16T16:08:00;16.0;69.4
78731;SHT31;68055;51.978;5.658;2024-02-16T16:10:28;16.0;69.2
78731;SHT31;68055;51.978;5.658;2024-02-16T16:12:57;16.0;69.3
78731;SHT31;68055;51.978;5.658;2024-02-16T16:15:27;16.0;69.5